Progresso, New Mexico
Current Conditions -  °F | °C
As of 4:55 PM on Wednesday 22 Oct 2014 (Local Time) from K0E0 Reporting Station
Clear Clear  
Wind Chill: 68°   Ceiling: Unl
Heat Index: 68°   Visibility: 10mi
Dew Point: 33°   Wind: 3mph
Humidity: 28%   Direction: 240°WSW
Pressure: 30.17"   Gusts: NA
Location:  34.4464°N, 106.01°W
Report Text: K0E0 222255Z AUTO 24003KT 10SM CLR 20/01 A3017 RMK AO2 T02000007
Loading
Personal Weather Stations






























Interactive Weather Map
Tropical Storm Tracking
New forecast layout! Learn more

10-Day Weather Forecast

Advertisements
Track Severe Weather on mobile